| time (UTC) | temp C | wind direction | speed KPH | gust KPH | rain 1hr cm | rain 24hr cm | rain mn cm | humidity % | barometer mb |
| 20260906194609 | 21 | 354 | 9.7 | 9.7 | 0.00 | 0.00 | 0.00 | 34 | 1014.1 |
| 20260906193629 | 21 | 325 | 11.3 | 12.9 | 0.00 | 0.00 | 0.00 | 36 | 1014.3 |
| 20260906192609 | 21 | 353 | 9.7 | 11.3 | 0.00 | 0.00 | 0.00 | 37 | 1014.5 |
| 20260906191609 | 20 | 3 | 4.8 | 4.8 | 0.00 | 0.00 | 0.00 | 37 | 1014.6 |
| 20260906190609 | 20 | 334 | 1.6 | 8.0 | 0.00 | 0.00 | 0.00 | 37 | 1014.7 |
| 20260906185609 | 20 | 9 | 4.8 | 8.0 | 0.00 | 0.00 | 0.00 | 40 | 1014.8 |
| 20260906184609 | 20 | 349 | 0.0 | 3.2 | 0.00 | 0.00 | 0.00 | 39 | 1015.0 |
| 20260906183609 | 19 | 354 | 4.8 | 9.7 | 0.00 | 0.00 | 0.00 | 41 | 1015.1 |
| 20260906182608 | 18 | 14 | 3.2 | 8.0 | 0.00 | 0.00 | 0.00 | 42 | 1015.2 |
| 20260906181629 | 18 | 12 | 4.8 | 4.8 | 0.00 | 0.00 | 0.00 | 43 | 1015.2 |
| 20260906180608 | 18 | 12 | 4.8 | 4.8 | 0.00 | 0.00 | 0.00 | 46 | 1015.3 |
| 20260906175608 | 18 | 11 | 3.2 | 6.4 | 0.00 | 0.00 | 0.00 | 46 | 1015.3 |
| 20260906174608 | 18 | 13 | 4.8 | 6.4 | 0.00 | 0.00 | 0.00 | 51 | 1015.3 |
| 20260906173628 | 17 | 17 | 4.8 | 8.0 | 0.00 | 0.00 | 0.00 | 53 | 1015.4 |
| 20260906172608 | 17 | 29 | 4.8 | 9.7 | 0.00 | 0.00 | 0.00 | 54 | 1015.4 |
| 20260906171608 | 17 | 32 | 6.4 | 8.0 | 0.00 | 0.00 | 0.00 | 56 | 1015.5 |
| 20260906170608 | 16 | 23 | 4.8 | 8.0 | 0.00 | 0.00 | 0.00 | 58 | 1015.5 |
| 20260906165607 | 16 | 25 | 4.8 | 6.4 | 0.00 | 0.00 | 0.00 | 58 | 1015.4 |
| 20260906164608 | 16 | 18 | 4.8 | 4.8 | 0.00 | 0.00 | 0.00 | 58 | 1015.5 |
| 20260906163607 | 16 | 32 | 4.8 | 6.4 | 0.00 | 0.00 | 0.00 | 59 | 1015.6 |
| 20260906162608 | 16 | 137 | 0.0 | 4.8 | 0.00 | 0.00 | 0.00 | 60 | 1015.5 |
| 20260906134606 | 10 | 177 | 0.0 | 1.6 | 0.00 | 0.00 | 0.00 | 77 | 1014.9 |
| 20260906133606 | 10 | 177 | 0.0 | 3.2 | 0.00 | 0.00 | 0.00 | 77 | 1014.8 |
| 20260906132606 | 10 | 262 | 3.2 | 4.8 | 0.00 | 0.00 | 0.00 | 77 | 1014.7 |
| 20260906131606 | 11 | 262 | 3.2 | 4.8 | 0.00 | 0.00 | 0.00 | 76 | 1014.6 |
| 20260906101604 | 12 | 262 | 0.0 | 0.0 | 0.00 | 0.03 | 0.00 | 67 | 1013.7 |
| 20260906100604 | 12 | 262 | 0.0 | 1.6 | 0.00 | 0.03 | 0.00 | 67 | 1013.8 |
| 20260906095604 | 12 | 262 | 3.2 | 4.8 | 0.00 | 0.03 | 0.00 | 67 | 1013.8 |
| 20260906094604 | 12 | 262 | 1.6 | 3.2 | 0.00 | 0.03 | 0.00 | 65 | 1013.9 |
| 20260906093604 | 12 | 262 | 3.2 | 3.2 | 0.00 | 0.03 | 0.00 | 64 | 1013.9 |
| 20260906092604 | 13 | 262 | 1.6 | 4.8 | 0.00 | 0.03 | 0.00 | 62 | 1013.9 |
| 20260906062602 | 15 | 318 | 1.6 | 3.2 | 0.00 | 0.03 | 0.00 | 55 | 1014.4 |
| 20260906061602 | 15 | 318 | 0.0 | 0.0 | 0.00 | 0.03 | 0.00 | 54 | 1014.6 |
| 20260906060602 | 15 | 317 | 4.8 | 4.8 | 0.00 | 0.03 | 0.00 | 55 | 1014.3 |
| 20260906055602 | 15 | 320 | 4.8 | 4.8 | 0.00 | 0.03 | 0.03 | 59 | 1014.4 |
| 20260906054602 | 16 | 320 | 3.2 | 4.8 | 0.00 | 0.03 | 0.03 | 60 | 1015.0 |
| 20260906053602 | 16 | 320 | 3.2 | 3.2 | 0.00 | 0.03 | 0.03 | 59 | 1014.9 |
| 20260906052602 | 16 | 320 | 3.2 | 4.8 | 0.00 | 0.03 | 0.03 | 58 | 1015.6 |
| 20260906051601 | 16 | 320 | 0.0 | 0.0 | 0.00 | 0.03 | 0.03 | 56 | 1015.7 |
| 20260906050601 | 16 | 320 | 1.6 | 3.2 | 0.00 | 0.03 | 0.03 | 55 | 1015.7 |
| 20260906045602 | 16 | 320 | 0.0 | 0.0 | 0.00 | 0.03 | 0.03 | 53 | 1015.6 |
| 20260906044621 | 17 | 320 | 0.0 | 0.0 | 0.00 | 0.03 | 0.03 | 52 | 1015.5 |
| 20260906043601 | 17 | 320 | 1.6 | 3.2 | 0.00 | 0.03 | 0.03 | 51 | 1015.6 |
| 20260906042601 | 17 | 320 | 3.2 | 4.8 | 0.00 | 0.03 | 0.03 | 50 | 1015.3 |
| 20260906041601 | 17 | 320 | 4.8 | 4.8 | 0.00 | 0.03 | 0.03 | 48 | 1014.9 |
| 20260906040601 | 17 | 314 | 4.8 | 4.8 | 0.00 | 0.03 | 0.03 | 48 | 1015.1 |
| 20260906035601 | 17 | 311 | 3.2 | 4.8 | 0.00 | 0.03 | 0.03 | 48 | 1015.4 |
| 20260906034601 | 18 | 311 | 0.0 | 1.6 | 0.00 | 0.03 | 0.03 | 48 | 1015.4 |
| 20260906033601 | 18 | 314 | 3.2 | 4.8 | 0.00 | 0.03 | 0.03 | 49 | 1015.3 |
| 20260906032601 | 18 | 316 | 1.6 | 6.4 | 0.00 | 0.03 | 0.03 | 49 | 1015.2 |
| 20260906031601 | 18 | 316 | 4.8 | 4.8 | 0.00 | 0.03 | 0.03 | 50 | 1015.2 |
| 20260906002559 | 22 | 358 | 8.0 | 8.0 | 0.00 | 0.03 | 0.03 | 40 | 1015.5 |
| 20260906001559 | 22 | 353 | 4.8 | 4.8 | 0.00 | 0.03 | 0.03 | 39 | 1015.4 |
| 20260906000559 | 22 | 349 | 4.8 | 6.4 | 0.00 | 0.03 | 0.03 | 37 | 1015.5 |
| 20260905235559 | 22 | 349 | 4.8 | 11.3 | 0.00 | 0.03 | 0.03 | 37 | 1015.6 |
| 20260905234619 | 23 | 14 | 6.4 | 8.0 | 0.00 | 0.03 | 0.03 | 37 | 1015.8 |
| 20260905233558 | 23 | 316 | 1.6 | 11.3 | 0.00 | 0.03 | 0.03 | 37 | 1015.8 |
| 20260905232619 | 23 | 339 | 8.0 | 8.0 | 0.00 | 0.03 | 0.03 | 38 | 1015.8 |
| 20260905231559 | 23 | 339 | 6.4 | 6.4 | 0.00 | 0.03 | 0.03 | 37 | 1015.9 |
| 20260905230558 | 23 | 339 | 4.8 | 6.4 | 0.00 | 0.03 | 0.03 | 37 | 1015.9 |
| 20260905225558 | 23 | 324 | 6.4 | 11.3 | 0.00 | 0.03 | 0.03 | 36 | 1016.2 |
| 20260905224558 | 23 | 322 | 4.8 | 4.8 | 0.00 | 0.03 | 0.03 | 36 | 1016.4 |
| 20260905223558 | 23 | 344 | 3.2 | 6.4 | 0.00 | 0.03 | 0.03 | 35 | 1016.6 |
| 20260905222558 | 23 | 288 | 4.8 | 9.7 | 0.00 | 0.03 | 0.03 | 37 | 1016.8 |
| 20260905221558 | 23 | 280 | 0.0 | 3.2 | 0.00 | 0.03 | 0.03 | 37 | 1016.9 |
| 20260905220558 | 23 | 281 | 1.6 | 4.8 | 0.00 | 0.03 | 0.03 | 39 | 1016.9 |
| 20260905215558 | 22 | 280 | 1.6 | 6.4 | 0.00 | 0.03 | 0.03 | 38 | 1017.1 |
| 20260905214558 | 22 | 274 | 4.8 | 4.8 | 0.00 | 0.03 | 0.03 | 39 | 1017.4 |
| 20260905213557 | 23 | 195 | 0.0 | 6.4 | 0.00 | 0.05 | 0.03 | 40 | 1017.4 |
| 20260905212557 | 22 | 243 | 3.2 | 8.0 | 0.00 | 0.05 | 0.03 | 42 | 1017.4 |
| 20260905211558 | 22 | 201 | 0.0 | 4.8 | 0.00 | 0.05 | 0.03 | 41 | 1017.7 |
| 20260905210557 | 22 | 155 | 3.2 | 9.7 | 0.00 | 0.08 | 0.03 | 45 | 1017.8 |
| 20260905205557 | 22 | 301 | 0.0 | 8.0 | 0.00 | 0.10 | 0.03 | 41 | 1017.9 |
| 20260905204557 | 22 | 292 | 4.8 | 4.8 | 0.00 | 0.10 | 0.03 | 42 | 1018.0 |
| 20260905203557 | 21 | 35 | 4.8 | 6.4 | 0.00 | 0.10 | 0.03 | 44 | 1018.0 |
| 20260905202557 | 21 | 309 | 3.2 | 12.9 | 0.00 | 0.10 | 0.03 | 45 | 1018.1 |
| 20260905201557 | 20 | 324 | 4.8 | 6.4 | 0.00 | 0.10 | 0.03 | 45 | 1018.2 |
| 20260905200617 | 20 | 25 | 4.8 | 4.8 | 0.00 | 0.13 | 0.03 | 42 | 1018.3 |
| 20260905195557 | 20 | 71 | 1.6 | 4.8 | 0.00 | 0.13 | 0.03 | 46 | 1018.4 |